Blue Star 1 — SWET — position and weather

sailwx.info

Track history (hours):
 
Tides and Currents Weather Stations Pressure Air Temp Water Temp Dewpoint Dewpoint Depression Visibility Wind Speed Wind Dir Waves Ship Positions

Blue Star 1

Last reported at 2017-May-25 05:00 UTC. Time now 2017-May-25 05:13 UTC.
Position N 37°56' E 023°38'.

Length 176 m; draft 6.5 m.

Type: Passenger vessel. MMSI: 239710000.

Date/timePositionNaut miles runAvg speedWind from/ knotsBaromVisibWave heightAir tempDewpointWater temp
2017-May-25 05:00N 37°56' E 023°38'0 0.0
2017-May-25 04:30N 37°56' E 023°38'0 0.0
2017-May-25 04:00N 37°56' E 023°38'0 0.0
2017-May-25 03:30N 37°56' E 023°38'2 3.7
2017-May-25 03:00N 37°55' E 023°38'1121.1
2017-May-25 02:30N 37°45' E 023°44'1122.2
2017-May-25 02:01N 37°38' E 023°55'1821.0
2017-May-25 01:10N 37°44' E 024°16'14 0.5
2017-May-23 18:59N 37°36' E 024°01'1019.0
2017-May-23 18:29N 37°38' E 023°49'817.3
2017-May-23 18:00N 37°43' E 023°41'918.6
2017-May-23 17:30N 37°52' E 023°37'4 8.8
2017-May-23 17:00N 37°56' E 023°38'0 0.0
2017-May-23 16:31N 37°56' E 023°38'0 0.0
2017-May-23 16:01N 37°56' E 023°38'0 0.0
2017-May-23 15:31N 37°56' E 023°38'0 0.0
2017-May-23 15:01N 37°56' E 023°38'0 0.0
2017-May-23 14:01N 37°56' E 023°38'0 0.0
2017-May-23 13:31N 37°56' E 023°38'0 0.0
2017-May-23 13:01N 37°56' E 023°38'0 0.0
2017-May-23 12:31N 37°56' E 023°38'0 0.0
2017-May-23 12:01N 37°56' E 023°38'0 0.0
2017-May-23 11:30N 37°56' E 023°38'0 0.0
2017-May-23 11:00N 37°56' E 023°38'0 0.0
2017-May-23 10:31N 37°56' E 023°38'0 0.0
2017-May-23 10:01N 37°56' E 023°38'0 0.0
2017-May-23 09:31N 37°56' E 023°38'0 0.0
2017-May-23 09:01N 37°56' E 023°38'0 0.0
2017-May-23 08:30N 37°56' E 023°38'0 0.0
2017-May-23 06:07N 37°56' E 023°38'0 0.0
2017-May-23 06:00N 37°56' E 023°38'0 0.0
2017-May-23 05:31N 37°56' E 023°38'0 0.0
2017-May-23 05:00N 37°56' E 023°38'2 3.9
2017-May-23 04:31N 37°55' E 023°37'1020.2
2017-May-23 04:01N 37°45' E 023°43'1121.8
2017-May-23 03:31N 37°39' E 023°53'1122.2
2017-May-23 03:00N 37°38' E 024°07'9 0.3
2017-May-21 18:42N 37°34' E 023°57'419.2
2017-May-21 18:29N 37°35' E 023°52'919.0
2017-May-21 18:01N 37°40' E 023°42'1019.4
2017-May-21 17:31N 37°49' E 023°37'815.0
2017-May-21 17:00N 37°56' E 023°38'0 0.0
2017-May-21 16:29N 37°56' E 023°38'0 0.0
2017-May-21 15:59N 37°56' E 023°38'0 0.0
2017-May-21 15:30N 37°56' E 023°38'0 0.0
2017-May-21 15:00N 37°56' E 023°38'0 0.0
2017-May-21 14:30N 37°56' E 023°38'0 0.0
2017-May-21 13:30N 37°56' E 023°38'0 0.0
2017-May-21 13:00N 37°56' E 023°38'0 0.0
2017-May-21 12:30N 37°56' E 023°38'0 0.0
2017-May-21 12:00N 37°56' E 023°38'0 0.0
2017-May-21 11:30N 37°56' E 023°38'0 0.0
2017-May-21 11:00N 37°56' E 023°38'0 0.0
2017-May-21 10:30N 37°56' E 023°38'0 0.0
2017-May-21 10:00N 37°56' E 023°38'0 0.0
2017-May-21 09:30N 37°56' E 023°38'0 0.0
2017-May-21 09:00N 37°56' E 023°38'0 0.0
2017-May-21 08:30N 37°56' E 023°38'0 0.0
2017-May-21 08:00N 37°56' E 023°38'0 0.0
2017-May-21 07:30N 37°56' E 023°38'0 0.0
2017-May-21 07:00N 37°56' E 023°38'0 0.0
2017-May-21 06:30N 37°56' E 023°38'0 0.0
2017-May-21 06:00N 37°56' E 023°38'0 0.0
2017-May-21 05:30N 37°56' E 023°38'0 0.0
2017-May-21 05:00N 37°56' E 023°38'0 0.0
2017-May-21 04:30N 37°56' E 023°38'0 0.0
2017-May-21 04:00N 37°56' E 023°38'0 0.0
2017-May-21 03:30N 37°56' E 023°38'2 3.9
2017-May-21 03:01N 37°55' E 023°38'918.1
2017-May-21 02:30N 37°46' E 023°43'1122.0
2017-May-21 02:00N 37°38' E 023°53'1121.6
2017-May-21 01:29N 37°38' E 024°07'16 0.6
2017-May-19 22:26N 37°38' E 023°48'919.9
2017-May-19 22:01N 37°44' E 023°40'1020.9
2017-May-19 21:31N 37°54' E 023°37'2 4.5
2017-May-19 21:00N 37°56' E 023°38'0 0.0
2017-May-19 20:30N 37°56' E 023°38'0 0.0
2017-May-19 20:00N 37°56' E 023°38'0 0.0
2017-May-19 19:30N 37°56' E 023°38'0 0.0
2017-May-19 19:00N 37°56' E 023°38'0 0.0
2017-May-19 18:28N 37°56' E 023°38'0 0.0
2017-May-19 17:58N 37°56' E 023°38'0 0.0
2017-May-19 17:28N 37°56' E 023°38'0 0.0
2017-May-19 17:00N 37°56' E 023°38'0 0.0
2017-May-19 16:30N 37°56' E 023°38'0 0.0
2017-May-19 16:00N 37°56' E 023°38'0 0.0
2017-May-19 15:30N 37°56' E 023°38'0 0.0
2017-May-19 15:00N 37°56' E 023°38'0 0.0
2017-May-19 14:00N 37°56' E 023°38'0 0.0
2017-May-19 13:30N 37°56' E 023°38'0 0.0
2017-May-19 13:00N 37°56' E 023°38'0 0.0
2017-May-19 12:30N 37°56' E 023°38'0 0.0
2017-May-19 12:00N 37°56' E 023°38'0 0.0
2017-May-19 11:30N 37°56' E 023°38'0 0.0
2017-May-19 11:00N 37°56' E 023°38'0 0.0
2017-May-19 10:27N 37°56' E 023°38'0 0.0
2017-May-19 09:59N 37°56' E 023°38'0 0.0
2017-May-19 09:26N 37°56' E 023°38'0 0.0
2017-May-19 08:59N 37°56' E 023°38'0 0.0
2017-May-19 08:29N 37°56' E 023°38'0 0.0
2017-May-19 07:59N 37°56' E 023°38'0 0.0
2017-May-19 07:29N 37°56' E 023°38'0 0.0
2017-May-19 06:59N 37°56' E 023°38'0 0.0
2017-May-19 06:29N 37°56' E 023°38'0 0.0
2017-May-19 05:59N 37°56' E 023°38'0 0.0
2017-May-19 05:29N 37°56' E 023°38'0 0.0
2017-May-19 04:59N 37°56' E 023°38'0 0.0
2017-May-19 04:29N 37°56' E 023°38'0 0.0
2017-May-19 03:50N 37°56' E 023°38'0 0.0
2017-May-19 03:29N 37°56' E 023°38'0 0.0
2017-May-19 02:58N 37°56' E 023°38'0 0.0
2017-May-19 02:28N 37°56' E 023°38'0 0.0
2017-May-19 01:58N 37°56' E 023°38'0 0.0
2017-May-19 01:28N 37°56' E 023°38'0 0.0
2017-May-19 00:58N 37°56' E 023°38'0 0.0
2017-May-19 00:25N 37°56' E 023°38'0 0.0
2017-May-18 23:58N 37°56' E 023°38'0 0.0
2017-May-18 23:28N 37°56' E 023°38'0 0.0
2017-May-18 22:58N 37°56' E 023°38'0 0.0
2017-May-18 22:28N 37°56' E 023°38'0 0.0
2017-May-18 21:58N 37°56' E 023°38'0 0.0
2017-May-18 21:19N 37°56' E 023°38'0 0.0
2017-May-18 20:58N 37°56' E 023°38'0 0.0
2017-May-18 20:28N 37°56' E 023°38'0 0.0
2017-May-18 19:58N 37°56' E 023°38'0 0.0
2017-May-18 19:28N 37°56' E 023°38'0 0.0
2017-May-18 19:01N 37°56' E 023°38'0 0.0
2017-May-18 18:30N 37°56' E 023°38'0 0.0
2017-May-18 18:00N 37°56' E 023°38'0 0.0
2017-May-18 17:30N 37°56' E 023°38'0 0.0
2017-May-18 16:54N 37°56' E 023°38'0 0.0
2017-May-18 16:30N 37°56' E 023°38'0 0.0
2017-May-18 16:00N 37°56' E 023°38'0 0.0
2017-May-18 15:30N 37°56' E 023°38'0 0.0
2017-May-18 15:00N 37°56' E 023°38'0 0.0
2017-May-18 14:30N 37°56' E 023°38'0 0.0
2017-May-18 13:30N 37°56' E 023°38'0 0.0
2017-May-18 13:00N 37°56' E 023°38'0 0.0
2017-May-18 12:30N 37°56' E 023°38'0 0.0
2017-May-18 12:00N 37°56' E 023°38'0 0.0
2017-May-18 11:30N 37°56' E 023°38'0 0.0
2017-May-18 10:59N 37°56' E 023°38'0 0.0
2017-May-18 10:29N 37°56' E 023°38'0 0.0
2017-May-18 09:59N 37°56' E 023°38'0 0.0
2017-May-18 09:02N 37°56' E 023°38'0 0.0
2017-May-18 08:56N 37°56' E 023°38'0 0.0
2017-May-18 08:29N 37°56' E 023°38'0 0.0
2017-May-18 07:59N 37°56' E 023°38'0 0.0
2017-May-18 07:29N 37°56' E 023°38'0 0.0
2017-May-18 06:59N 37°56' E 023°38'0 0.0
2017-May-18 06:29N 37°56' E 023°38'0 0.0
2017-May-18 05:59N 37°56' E 023°38'0 0.0
2017-May-18 05:29N 37°56' E 023°38'0 0.0
2017-May-18 04:59N 37°56' E 023°38'0 0.0
2017-May-18 04:29N 37°56' E 023°38'0 0.0
2017-May-18 03:59N 37°56' E 023°38'0 0.0
2017-May-18 03:28N 37°56' E 023°38'0 0.0
2017-May-18 02:58N 37°56' E 023°38'0 0.0
2017-May-18 02:10N 37°56' E 023°38'0 0.0
2017-May-18 01:58N 37°56' E 023°38'0 0.0
2017-May-18 01:25N 37°56' E 023°38'0 0.0
2017-May-18 00:58N 37°56' E 023°38'0 0.0
2017-May-18 00:28N 37°56' E 023°38'0 0.0
2017-May-17 23:58N 37°56' E 023°38'0 0.0
2017-May-17 23:28N 37°56' E 023°38'0 0.0
2017-May-17 22:58N 37°56' E 023°38'0 0.0
2017-May-17 22:28N 37°56' E 023°38'0 0.0
2017-May-17 21:58N 37°56' E 023°38'0 0.0
2017-May-17 21:28N 37°56' E 023°38'0 0.0
2017-May-17 20:58N 37°56' E 023°38'0 0.0
2017-May-17 20:28N 37°56' E 023°38'0 0.0
2017-May-17 19:58N 37°56' E 023°38'0 0.0
2017-May-17 19:28N 37°56' E 023°38'0 0.0
2017-May-17 19:00N 37°56' E 023°38'0 0.0
2017-May-17 18:24N 37°56' E 023°38'0 0.0
2017-May-17 18:00N 37°56' E 023°38'0 0.0
2017-May-17 17:30N 37°56' E 023°38'0 0.0
2017-May-17 17:00N 37°56' E 023°38'0 0.0
2017-May-17 16:30N 37°56' E 023°38'0 0.0
2017-May-17 16:00N 37°56' E 023°38'0 0.0
2017-May-17 15:30N 37°56' E 023°38'0 0.0
2017-May-17 15:00N 37°56' E 023°38'0 0.0
2017-May-17 14:00N 37°56' E 023°38'0 0.0
2017-May-17 13:30N 37°56' E 023°38'0 0.0
2017-May-17 12:57N 37°56' E 023°38'0 0.0
2017-May-17 12:30N 37°56' E 023°38'0 0.0
2017-May-17 12:00N 37°56' E 023°38'0 0.0
2017-May-17 11:30N 37°56' E 023°38'0 0.0
2017-May-17 10:59N 37°56' E 023°38'0 0.0
2017-May-17 10:20N 37°56' E 023°38'0 0.0
2017-May-17 09:59N 37°56' E 023°38'0 0.0
2017-May-17 09:29N 37°56' E 023°38'0 0.0
2017-May-17 08:56N 37°56' E 023°38'0 0.0
2017-May-17 08:29N 37°56' E 023°38'0 0.0
2017-May-17 07:59N 37°56' E 023°38'0 0.0
2017-May-17 07:29N 37°56' E 023°38'0 0.0
2017-May-17 06:59N 37°56' E 023°38'0 0.0
2017-May-17 06:29N 37°56' E 023°38'0 0.0
2017-May-17 05:59N 37°56' E 023°38'0 0.0
2017-May-17 05:29N 37°56' E 023°38'0 0.0
2017-May-17 04:58N 37°56' E 023°38'0 0.0
2017-May-17 04:25N 37°56' E 023°38'0 0.0
2017-May-17 03:58N 37°56' E 023°38'0 0.0
2017-May-17 03:25N 37°56' E 023°38'0 0.0
2017-May-17 02:58N 37°56' E 023°38'0 0.0
2017-May-17 02:28N 37°56' E 023°38'0 0.0
2017-May-17 02:01N 37°56' E 023°38'0 0.0
2017-May-17 01:30N 37°56' E 023°38'0 0.0
2017-May-17 01:00N 37°56' E 023°38'0 0.0
2017-May-17 00:30N 37°56' E 023°38'0 0.0
2017-May-17 00:00N 37°56' E 023°38'0 0.0
2017-May-16 23:30N 37°56' E 023°38'0 0.0
2017-May-16 22:59N 37°56' E 023°38'0 0.0
2017-May-16 22:29N 37°56' E 023°38'0 0.0
2017-May-16 21:59N 37°56' E 023°38'0 0.0
2017-May-16 21:29N 37°56' E 023°38'0 0.0
2017-May-16 20:59N 37°56' E 023°38'0 0.0
2017-May-16 20:29N 37°56' E 023°38'0 0.0
2017-May-16 20:00N 37°56' E 023°38'0 0.0
2017-May-16 19:30N 37°56' E 023°38'0 0.0
2017-May-16 19:00N 37°56' E 023°38'0 0.0
2017-May-16 18:29N 37°56' E 023°38'0 0.0
2017-May-16 17:59N 37°56' E 023°38'0 0.0
2017-May-16 17:29N 37°56' E 023°38'0 0.0
2017-May-16 16:59N 37°56' E 023°38'0 0.0
2017-May-16 16:26N 37°56' E 023°38'0 0.0
2017-May-16 15:59N 37°56' E 023°38'0 0.0
2017-May-16 15:29N 37°56' E 023°38'0 0.0
2017-May-16 14:56N 37°56' E 023°38'0 0.0
2017-May-16 14:29N 37°56' E 023°38'0 0.0
2017-May-16 13:29N 37°56' E 023°38'0 0.0
2017-May-16 12:58N 37°56' E 023°38'0 0.0
2017-May-16 12:28N 37°56' E 023°38'0 0.0
2017-May-16 11:55N 37°56' E 023°38'0 0.0
2017-May-16 11:28N 37°56' E 023°38'0 0.0
2017-May-16 10:52N 37°56' E 023°38'0 0.0
2017-May-16 10:25N 37°56' E 023°38'0 0.0
2017-May-16 09:55N 37°56' E 023°38'0 0.0
2017-May-16 09:28N 37°56' E 023°38'0 0.0
2017-May-16 08:58N 37°56' E 023°38'0 0.0
2017-May-16 08:28N 37°56' E 023°38'0 0.0
2017-May-16 07:58N 37°56' E 023°38'0 0.0
2017-May-16 07:28N 37°56' E 023°38'0 0.0
2017-May-16 06:58N 37°56' E 023°38'0 0.0
2017-May-16 06:28N 37°56' E 023°38'0 0.0
2017-May-16 05:58N 37°56' E 023°38'0 0.0
2017-May-16 05:30N 37°56' E 023°38'0 0.0
2017-May-16 05:00N 37°56' E 023°38'0 0.0
2017-May-16 04:30N 37°56' E 023°38'1 1.5
2017-May-16 04:00N 37°56' E 023°37'1019.6
2017-May-16 03:31N 37°47' E 023°42'1223.8
2017-May-16 03:00N 37°39' E 023°52'  
Track history (hours):
 
Tides and Currents Weather Stations Pressure Air Temp Water Temp Dewpoint Dewpoint Depression Visibility Wind Speed Wind Dir Waves Ship Positions

Blue Star 1

Last reported at 2017-May-25 05:00 UTC. Time now 2017-May-25 05:13 UTC.
Position N 37°56' E 023°38'.

Length 176 m; draft 6.5 m.

Type: Passenger vessel. MMSI: 239710000.

Date/timePositionNaut miles runAvg speedWind from/ knotsBaromVisibWave heightAir tempDewpointWater temp
2017-May-25 05:00N 37°56' E 023°38'0 0.0
2017-May-25 04:30N 37°56' E 023°38'0 0.0
2017-May-25 04:00N 37°56' E 023°38'0 0.0
2017-May-25 03:30N 37°56' E 023°38'2 3.7
2017-May-25 03:00N 37°55' E 023°38'1121.1
2017-May-25 02:30N 37°45' E 023°44'1122.2
2017-May-25 02:01N 37°38' E 023°55'1821.0
2017-May-25 01:10N 37°44' E 024°16'14 0.5
2017-May-23 18:59N 37°36' E 024°01'1019.0
2017-May-23 18:29N 37°38' E 023°49'817.3
2017-May-23 18:00N 37°43' E 023°41'918.6
2017-May-23 17:30N 37°52' E 023°37'4 8.8
2017-May-23 17:00N 37°56' E 023°38'0 0.0
2017-May-23 16:31N 37°56' E 023°38'0 0.0
2017-May-23 16:01N 37°56' E 023°38'0 0.0
2017-May-23 15:31N 37°56' E 023°38'0 0.0
2017-May-23 15:01N 37°56' E 023°38'0 0.0
2017-May-23 14:01N 37°56' E 023°38'0 0.0
2017-May-23 13:31N 37°56' E 023°38'0 0.0
2017-May-23 13:01N 37°56' E 023°38'0 0.0
2017-May-23 12:31N 37°56' E 023°38'0 0.0
2017-May-23 12:01N 37°56' E 023°38'0 0.0
2017-May-23 11:30N 37°56' E 023°38'0 0.0
2017-May-23 11:00N 37°56' E 023°38'0 0.0
2017-May-23 10:31N 37°56' E 023°38'0 0.0
2017-May-23 10:01N 37°56' E 023°38'0 0.0
2017-May-23 09:31N 37°56' E 023°38'0 0.0
2017-May-23 09:01N 37°56' E 023°38'0 0.0
2017-May-23 08:30N 37°56' E 023°38'0 0.0
2017-May-23 06:07N 37°56' E 023°38'0 0.0
2017-May-23 06:00N 37°56' E 023°38'0 0.0
2017-May-23 05:31N 37°56' E 023°38'0 0.0
2017-May-23 05:00N 37°56' E 023°38'2 3.9
2017-May-23 04:31N 37°55' E 023°37'1020.2
2017-May-23 04:01N 37°45' E 023°43'1121.8
2017-May-23 03:31N 37°39' E 023°53'1122.2
2017-May-23 03:00N 37°38' E 024°07'9 0.3
2017-May-21 18:42N 37°34' E 023°57'419.2
2017-May-21 18:29N 37°35' E 023°52'919.0
2017-May-21 18:01N 37°40' E 023°42'1019.4
2017-May-21 17:31N 37°49' E 023°37'815.0
2017-May-21 17:00N 37°56' E 023°38'0 0.0
2017-May-21 16:29N 37°56' E 023°38'0 0.0
2017-May-21 15:59N 37°56' E 023°38'0 0.0
2017-May-21 15:30N 37°56' E 023°38'0 0.0
2017-May-21 15:00N 37°56' E 023°38'0 0.0
2017-May-21 14:30N 37°56' E 023°38'0 0.0
2017-May-21 13:30N 37°56' E 023°38'0 0.0
2017-May-21 13:00N 37°56' E 023°38'0 0.0
2017-May-21 12:30N 37°56' E 023°38'0 0.0
2017-May-21 12:00N 37°56' E 023°38'0 0.0
2017-May-21 11:30N 37°56' E 023°38'0 0.0
2017-May-21 11:00N 37°56' E 023°38'0 0.0
2017-May-21 10:30N 37°56' E 023°38'0 0.0
2017-May-21 10:00N 37°56' E 023°38'0 0.0
2017-May-21 09:30N 37°56' E 023°38'0 0.0
2017-May-21 09:00N 37°56' E 023°38'0 0.0
2017-May-21 08:30N 37°56' E 023°38'0 0.0
2017-May-21 08:00N 37°56' E 023°38'0 0.0
2017-May-21 07:30N 37°56' E 023°38'0 0.0
2017-May-21 07:00N 37°56' E 023°38'0 0.0
2017-May-21 06:30N 37°56' E 023°38'0 0.0
2017-May-21 06:00N 37°56' E 023°38'0 0.0
2017-May-21 05:30N 37°56' E 023°38'0 0.0
2017-May-21 05:00N 37°56' E 023°38'0 0.0
2017-May-21 04:30N 37°56' E 023°38'0 0.0
2017-May-21 04:00N 37°56' E 023°38'0 0.0
2017-May-21 03:30N 37°56' E 023°38'2 3.9
2017-May-21 03:01N 37°55' E 023°38'918.1
2017-May-21 02:30N 37°46' E 023°43'1122.0
2017-May-21 02:00N 37°38' E 023°53'1121.6
2017-May-21 01:29N 37°38' E 024°07'16 0.6
2017-May-19 22:26N 37°38' E 023°48'919.9
2017-May-19 22:01N 37°44' E 023°40'1020.9
2017-May-19 21:31N 37°54' E 023°37'2 4.5
2017-May-19 21:00N 37°56' E 023°38'0 0.0
2017-May-19 20:30N 37°56' E 023°38'0 0.0
2017-May-19 20:00N 37°56' E 023°38'0 0.0
2017-May-19 19:30N 37°56' E 023°38'0 0.0
2017-May-19 19:00N 37°56' E 023°38'0 0.0
2017-May-19 18:28N 37°56' E 023°38'0 0.0
2017-May-19 17:58N 37°56' E 023°38'0 0.0
2017-May-19 17:28N 37°56' E 023°38'0 0.0
2017-May-19 17:00N 37°56' E 023°38'0 0.0
2017-May-19 16:30N 37°56' E 023°38'0 0.0
2017-May-19 16:00N 37°56' E 023°38'0 0.0
2017-May-19 15:30N 37°56' E 023°38'0 0.0
2017-May-19 15:00N 37°56' E 023°38'0 0.0
2017-May-19 14:00N 37°56' E 023°38'0 0.0
2017-May-19 13:30N 37°56' E 023°38'0 0.0
2017-May-19 13:00N 37°56' E 023°38'0 0.0
2017-May-19 12:30N 37°56' E 023°38'0 0.0
2017-May-19 12:00N 37°56' E 023°38'0 0.0
2017-May-19 11:30N 37°56' E 023°38'0 0.0
2017-May-19 11:00N 37°56' E 023°38'0 0.0
2017-May-19 10:27N 37°56' E 023°38'0 0.0
2017-May-19 09:59N 37°56' E 023°38'0 0.0
2017-May-19 09:26N 37°56' E 023°38'0 0.0
2017-May-19 08:59N 37°56' E 023°38'0 0.0
2017-May-19 08:29N 37°56' E 023°38'0 0.0
2017-May-19 07:59N 37°56' E 023°38'0 0.0
2017-May-19 07:29N 37°56' E 023°38'0 0.0
2017-May-19 06:59N 37°56' E 023°38'0 0.0
2017-May-19 06:29N 37°56' E 023°38'0 0.0
2017-May-19 05:59N 37°56' E 023°38'0 0.0
2017-May-19 05:29N 37°56' E 023°38'0 0.0
2017-May-19 04:59N 37°56' E 023°38'0 0.0
2017-May-19 04:29N 37°56' E 023°38'0 0.0
2017-May-19 03:50N 37°56' E 023°38'0 0.0
2017-May-19 03:29N 37°56' E 023°38'0 0.0
2017-May-19 02:58N 37°56' E 023°38'0 0.0
2017-May-19 02:28N 37°56' E 023°38'0 0.0
2017-May-19 01:58N 37°56' E 023°38'0 0.0
2017-May-19 01:28N 37°56' E 023°38'0 0.0
2017-May-19 00:58N 37°56' E 023°38'0 0.0
2017-May-19 00:25N 37°56' E 023°38'0 0.0
2017-May-18 23:58N 37°56' E 023°38'0 0.0
2017-May-18 23:28N 37°56' E 023°38'0 0.0
2017-May-18 22:58N 37°56' E 023°38'0 0.0
2017-May-18 22:28N 37°56' E 023°38'0 0.0
2017-May-18 21:58N 37°56' E 023°38'0 0.0
2017-May-18 21:19N 37°56' E 023°38'0 0.0
2017-May-18 20:58N 37°56' E 023°38'0 0.0
2017-May-18 20:28N 37°56' E 023°38'0 0.0
2017-May-18 19:58N 37°56' E 023°38'0 0.0
2017-May-18 19:28N 37°56' E 023°38'0 0.0
2017-May-18 19:01N 37°56' E 023°38'0 0.0
2017-May-18 18:30N 37°56' E 023°38'0 0.0
2017-May-18 18:00N 37°56' E 023°38'0 0.0
2017-May-18 17:30N 37°56' E 023°38'0 0.0
2017-May-18 16:54N 37°56' E 023°38'0 0.0
2017-May-18 16:30N 37°56' E 023°38'0 0.0
2017-May-18 16:00N 37°56' E 023°38'0 0.0
2017-May-18 15:30N 37°56' E 023°38'0 0.0
2017-May-18 15:00N 37°56' E 023°38'0 0.0
2017-May-18 14:30N 37°56' E 023°38'0 0.0
2017-May-18 13:30N 37°56' E 023°38'0 0.0
2017-May-18 13:00N 37°56' E 023°38'0 0.0
2017-May-18 12:30N 37°56' E 023°38'0 0.0
2017-May-18 12:00N 37°56' E 023°38'0 0.0
2017-May-18 11:30N 37°56' E 023°38'0 0.0
2017-May-18 10:59N 37°56' E 023°38'0 0.0
2017-May-18 10:29N 37°56' E 023°38'0 0.0
2017-May-18 09:59N 37°56' E 023°38'0 0.0
2017-May-18 09:02N 37°56' E 023°38'0 0.0
2017-May-18 08:56N 37°56' E 023°38'0 0.0
2017-May-18 08:29N 37°56' E 023°38'0 0.0
2017-May-18 07:59N 37°56' E 023°38'0 0.0
2017-May-18 07:29N 37°56' E 023°38'0 0.0
2017-May-18 06:59N 37°56' E 023°38'0 0.0
2017-May-18 06:29N 37°56' E 023°38'0 0.0
2017-May-18 05:59N 37°56' E 023°38'0 0.0
2017-May-18 05:29N 37°56' E 023°38'0 0.0
2017-May-18 04:59N 37°56' E 023°38'0 0.0
2017-May-18 04:29N 37°56' E 023°38'0 0.0
2017-May-18 03:59N 37°56' E 023°38'0 0.0
2017-May-18 03:28N 37°56' E 023°38'0 0.0
2017-May-18 02:58N 37°56' E 023°38'0 0.0
2017-May-18 02:10N 37°56' E 023°38'0 0.0
2017-May-18 01:58N 37°56' E 023°38'0 0.0
2017-May-18 01:25N 37°56' E 023°38'0 0.0
2017-May-18 00:58N 37°56' E 023°38'0 0.0
2017-May-18 00:28N 37°56' E 023°38'0 0.0
2017-May-17 23:58N 37°56' E 023°38'0 0.0
2017-May-17 23:28N 37°56' E 023°38'0 0.0
2017-May-17 22:58N 37°56' E 023°38'0 0.0
2017-May-17 22:28N 37°56' E 023°38'0 0.0
2017-May-17 21:58N 37°56' E 023°38'0 0.0
2017-May-17 21:28N 37°56' E 023°38'0 0.0
2017-May-17 20:58N 37°56' E 023°38'0 0.0
2017-May-17 20:28N 37°56' E 023°38'0 0.0
2017-May-17 19:58N 37°56' E 023°38'0 0.0
2017-May-17 19:28N 37°56' E 023°38'0 0.0
2017-May-17 19:00N 37°56' E 023°38'0 0.0
2017-May-17 18:24N 37°56' E 023°38'0 0.0
2017-May-17 18:00N 37°56' E 023°38'0 0.0
2017-May-17 17:30N 37°56' E 023°38'0 0.0
2017-May-17 17:00N 37°56' E 023°38'0 0.0
2017-May-17 16:30N 37°56' E 023°38'0 0.0
2017-May-17 16:00N 37°56' E 023°38'0 0.0
2017-May-17 15:30N 37°56' E 023°38'0 0.0
2017-May-17 15:00N 37°56' E 023°38'0 0.0
2017-May-17 14:00N 37°56' E 023°38'0 0.0
2017-May-17 13:30N 37°56' E 023°38'0 0.0
2017-May-17 12:57N 37°56' E 023°38'0 0.0
2017-May-17 12:30N 37°56' E 023°38'0 0.0
2017-May-17 12:00N 37°56' E 023°38'0 0.0
2017-May-17 11:30N 37°56' E 023°38'0 0.0
2017-May-17 10:59N 37°56' E 023°38'0 0.0
2017-May-17 10:20N 37°56' E 023°38'0 0.0
2017-May-17 09:59N 37°56' E 023°38'0 0.0
2017-May-17 09:29N 37°56' E 023°38'0 0.0
2017-May-17 08:56N 37°56' E 023°38'0 0.0
2017-May-17 08:29N 37°56' E 023°38'0 0.0
2017-May-17 07:59N 37°56' E 023°38'0 0.0
2017-May-17 07:29N 37°56' E 023°38'0 0.0
2017-May-17 06:59N 37°56' E 023°38'0 0.0
2017-May-17 06:29N 37°56' E 023°38'0 0.0
2017-May-17 05:59N 37°56' E 023°38'0 0.0
2017-May-17 05:29N 37°56' E 023°38'0 0.0
2017-May-17 04:58N 37°56' E 023°38'0 0.0
2017-May-17 04:25N 37°56' E 023°38'0 0.0
2017-May-17 03:58N 37°56' E 023°38'0 0.0
2017-May-17 03:25N 37°56' E 023°38'0 0.0
2017-May-17 02:58N 37°56' E 023°38'0 0.0
2017-May-17 02:28N 37°56' E 023°38'0 0.0
2017-May-17 02:01N 37°56' E 023°38'0 0.0
2017-May-17 01:30N 37°56' E 023°38'0 0.0
2017-May-17 01:00N 37°56' E 023°38'0 0.0
2017-May-17 00:30N 37°56' E 023°38'0 0.0
2017-May-17 00:00N 37°56' E 023°38'0 0.0
2017-May-16 23:30N 37°56' E 023°38'0 0.0
2017-May-16 22:59N 37°56' E 023°38'0 0.0
2017-May-16 22:29N 37°56' E 023°38'0 0.0
2017-May-16 21:59N 37°56' E 023°38'0 0.0
2017-May-16 21:29N 37°56' E 023°38'0 0.0
2017-May-16 20:59N 37°56' E 023°38'0 0.0
2017-May-16 20:29N 37°56' E 023°38'0 0.0
2017-May-16 20:00N 37°56' E 023°38'0 0.0
2017-May-16 19:30N 37°56' E 023°38'0 0.0
2017-May-16 19:00N 37°56' E 023°38'0 0.0
2017-May-16 18:29N 37°56' E 023°38'0 0.0
2017-May-16 17:59N 37°56' E 023°38'0 0.0
2017-May-16 17:29N 37°56' E 023°38'0 0.0
2017-May-16 16:59N 37°56' E 023°38'0 0.0
2017-May-16 16:26N 37°56' E 023°38'0 0.0
2017-May-16 15:59N 37°56' E 023°38'0 0.0
2017-May-16 15:29N 37°56' E 023°38'0 0.0
2017-May-16 14:56N 37°56' E 023°38'0 0.0
2017-May-16 14:29N 37°56' E 023°38'0 0.0
2017-May-16 13:29N 37°56' E 023°38'0 0.0
2017-May-16 12:58N 37°56' E 023°38'0 0.0
2017-May-16 12:28N 37°56' E 023°38'0 0.0
2017-May-16 11:55N 37°56' E 023°38'0 0.0
2017-May-16 11:28N 37°56' E 023°38'0 0.0
2017-May-16 10:52N 37°56' E 023°38'0 0.0
2017-May-16 10:25N 37°56' E 023°38'0 0.0
2017-May-16 09:55N 37°56' E 023°38'0 0.0
2017-May-16 09:28N 37°56' E 023°38'0 0.0
2017-May-16 08:58N 37°56' E 023°38'0 0.0
2017-May-16 08:28N 37°56' E 023°38'0 0.0
2017-May-16 07:58N 37°56' E 023°38'0 0.0
2017-May-16 07:28N 37°56' E 023°38'0 0.0
2017-May-16 06:58N 37°56' E 023°38'0 0.0
2017-May-16 06:28N 37°56' E 023°38'0 0.0
2017-May-16 05:58N 37°56' E 023°38'0 0.0
2017-May-16 05:30N 37°56' E 023°38'0 0.0
2017-May-16 05:00N 37°56' E 023°38'0 0.0
2017-May-16 04:30N 37°56' E 023°38'1 1.5
2017-May-16 04:00N 37°56' E 023°37'1019.6
2017-May-16 03:31N 37°47' E 023°42'1223.8
2017-May-16 03:00N 37°39' E 023°52'  

Dump ship's entire track history